sensor_id;sensor_type;location;lat;lon;timestamp;P1;durP1;ratioP1;P2;durP2;ratioP2
32196;SDS011;18697;42.770;23.400;2024-03-29T00:00:05;7.65;;;1.83;;
32196;SDS011;18697;42.770;23.400;2024-03-29T00:02:31;4.50;;;2.00;;
32196;SDS011;18697;42.770;23.400;2024-03-29T00:04:56;2.08;;;1.30;;
32196;SDS011;18697;42.770;23.400;2024-03-29T00:07:21;4.68;;;1.58;;
32196;SDS011;18697;42.770;23.400;2024-03-29T00:09:47;3.95;;;1.63;;
32196;SDS011;18697;42.770;23.400;2024-03-29T00:12:12;5.70;;;1.77;;
32196;SDS011;18697;42.770;23.400;2024-03-29T00:14:37;2.22;;;1.58;;
32196;SDS011;18697;42.770;23.400;2024-03-29T00:17:04;1.98;;;1.48;;
32196;SDS011;18697;42.770;23.400;2024-03-29T00:19:30;2.20;;;1.50;;
32196;SDS011;18697;42.770;23.400;2024-03-29T00:21:55;2.10;;;1.40;;
32196;SDS011;18697;42.770;23.400;2024-03-29T00:24:20;3.30;;;1.70;;
32196;SDS011;18697;42.770;23.400;2024-03-29T00:26:46;4.00;;;1.30;;
32196;SDS011;18697;42.770;23.400;2024-03-29T00:29:11;5.10;;;1.67;;
32196;SDS011;18697;42.770;23.400;2024-03-29T00:31:36;2.78;;;1.63;;
32196;SDS011;18697;42.770;23.400;2024-03-29T00:34:02;2.65;;;1.60;;
32196;SDS011;18697;42.770;23.400;2024-03-29T00:36:27;3.70;;;1.80;;
32196;SDS011;18697;42.770;23.400;2024-03-29T00:38:52;2.78;;;1.75;;
32196;SDS011;18697;42.770;23.400;2024-03-29T00:41:18;5.60;;;1.40;;
32196;SDS011;18697;42.770;23.400;2024-03-29T00:43:43;2.47;;;1.10;;
32196;SDS011;18697;42.770;23.400;2024-03-29T00:46:08;5.25;;;1.95;;
32196;SDS011;18697;42.770;23.400;2024-03-29T00:48:34;5.40;;;1.52;;
32196;SDS011;18697;42.770;23.400;2024-03-29T00:50:59;5.22;;;1.40;;
32196;SDS011;18697;42.770;23.400;2024-03-29T00:53:24;2.95;;;1.80;;
32196;SDS011;18697;42.770;23.400;2024-03-29T00:55:50;2.83;;;1.80;;
32196;SDS011;18697;42.770;23.400;2024-03-29T00:58:15;4.32;;;1.83;;
32196;SDS011;18697;42.770;23.400;2024-03-29T01:00:40;5.70;;;1.73;;
32196;SDS011;18697;42.770;23.400;2024-03-29T01:03:06;2.47;;;1.42;;
32196;SDS011;18697;42.770;23.400;2024-03-29T01:05:31;2.97;;;1.42;;
32196;SDS011;18697;42.770;23.400;2024-03-29T01:07:56;2.08;;;1.40;;
32196;SDS011;18697;42.770;23.400;2024-03-29T01:10:22;2.95;;;1.33;;
32196;SDS011;18697;42.770;23.400;2024-03-29T01:12:47;3.60;;;1.83;;
32196;SDS011;18697;42.770;23.400;2024-03-29T01:15:13;3.17;;;1.40;;
32196;SDS011;18697;42.770;23.400;2024-03-29T01:17:38;3.10;;;1.80;;
32196;SDS011;18697;42.770;23.400;2024-03-29T01:20:03;3.03;;;1.75;;
32196;SDS011;18697;42.770;23.400;2024-03-29T01:22:29;2.42;;;2.15;;
32196;SDS011;18697;42.770;23.400;2024-03-29T01:24:55;3.75;;;2.22;;
32196;SDS011;18697;42.770;23.400;2024-03-29T01:27:20;2.50;;;2.30;;
32196;SDS011;18697;42.770;23.400;2024-03-29T01:29:46;5.15;;;1.90;;
32196;SDS011;18697;42.770;23.400;2024-03-29T01:32:11;6.20;;;1.95;;
32196;SDS011;18697;42.770;23.400;2024-03-29T01:34:36;1.90;;;1.35;;
32196;SDS011;18697;42.770;23.400;2024-03-29T01:37:02;4.50;;;1.63;;
32196;SDS011;18697;42.770;23.400;2024-03-29T01:39:27;7.22;;;3.03;;
32196;SDS011;18697;42.770;23.400;2024-03-29T01:41:56;65.07;;;21.63;;
32196;SDS011;18697;42.770;23.400;2024-03-29T01:44:22;6.93;;;3.50;;
32196;SDS011;18697;42.770;23.400;2024-03-29T01:46:47;8.63;;;2.70;;
32196;SDS011;18697;42.770;23.400;2024-03-29T01:49:12;3.95;;;2.17;;
32196;SDS011;18697;42.770;23.400;2024-03-29T01:51:38;6.90;;;2.17;;
32196;SDS011;18697;42.770;23.400;2024-03-29T01:54:05;4.22;;;2.22;;
32196;SDS011;18697;42.770;23.400;2024-03-29T01:56:31;3.65;;;2.30;;
32196;SDS011;18697;42.770;23.400;2024-03-29T01:58:57;5.10;;;1.70;;
32196;SDS011;18697;42.770;23.400;2024-03-29T02:01:24;1.42;;;1.20;;
32196;SDS011;18697;42.770;23.400;2024-03-29T02:03:51;3.58;;;1.15;;
32196;SDS011;18697;42.770;23.400;2024-03-29T02:06:17;6.25;;;1.17;;
32196;SDS011;18697;42.770;23.400;2024-03-29T02:08:43;6.00;;;1.40;;
32196;SDS011;18697;42.770;23.400;2024-03-29T02:11:09;2.35;;;0.80;;
32196;SDS011;18697;42.770;23.400;2024-03-29T02:13:34;4.03;;;1.08;;
32196;SDS011;18697;42.770;23.400;2024-03-29T02:16:01;2.22;;;1.10;;
32196;SDS011;18697;42.770;23.400;2024-03-29T02:18:26;4.00;;;1.17;;
32196;SDS011;18697;42.770;23.400;2024-03-29T02:20:51;2.03;;;0.73;;
32196;SDS011;18697;42.770;23.400;2024-03-29T02:23:23;1.85;;;0.70;;
32196;SDS011;18697;42.770;23.400;2024-03-29T02:25:53;0.97;;;0.73;;
32196;SDS011;18697;42.770;23.400;2024-03-29T02:28:18;3.50;;;1.00;;
32196;SDS011;18697;42.770;23.400;2024-03-29T02:30:47;4.68;;;1.05;;
32196;SDS011;18697;42.770;23.400;2024-03-29T02:33:12;1.73;;;1.00;;
32196;SDS011;18697;42.770;23.400;2024-03-29T02:35:38;1.67;;;1.13;;
32196;SDS011;18697;42.770;23.400;2024-03-29T02:40:28;1.98;;;1.00;;
32196;SDS011;18697;42.770;23.400;2024-03-29T02:42:54;1.35;;;0.75;;
32196;SDS011;18697;42.770;23.400;2024-03-29T02:45:19;5.25;;;1.23;;
32196;SDS011;18697;42.770;23.400;2024-03-29T02:47:44;2.97;;;1.70;;
32196;SDS011;18697;42.770;23.400;2024-03-29T02:50:10;4.20;;;1.50;;
32196;SDS011;18697;42.770;23.400;2024-03-29T02:52:38;3.40;;;1.60;;
32196;SDS011;18697;42.770;23.400;2024-03-29T02:55:03;4.47;;;1.58;;
32196;SDS011;18697;42.770;23.400;2024-03-29T02:57:29;2.75;;;1.65;;
32196;SDS011;18697;42.770;23.400;2024-03-29T02:59:55;2.85;;;1.70;;
32196;SDS011;18697;42.770;23.400;2024-03-29T03:02:20;4.20;;;1.92;;
32196;SDS011;18697;42.770;23.400;2024-03-29T03:04:45;1.95;;;1.50;;
32196;SDS011;18697;42.770;23.400;2024-03-29T03:09:54;1.90;;;1.52;;
32196;SDS011;18697;42.770;23.400;2024-03-29T03:12:38;4.45;;;1.48;;
32196;SDS011;18697;42.770;23.400;2024-03-29T03:15:04;2.88;;;1.40;;
32196;SDS011;18697;42.770;23.400;2024-03-29T03:19:56;2.58;;;1.40;;
32196;SDS011;18697;42.770;23.400;2024-03-29T03:22:21;1.88;;;1.30;;
32196;SDS011;18697;42.770;23.400;2024-03-29T03:24:47;3.53;;;1.50;;
32196;SDS011;18697;42.770;23.400;2024-03-29T03:27:12;4.10;;;1.40;;
32196;SDS011;18697;42.770;23.400;2024-03-29T03:29:38;3.35;;;1.38;;
32196;SDS011;18697;42.770;23.400;2024-03-29T03:32:04;3.40;;;1.40;;
32196;SDS011;18697;42.770;23.400;2024-03-29T03:34:30;2.33;;;1.52;;
32196;SDS011;18697;42.770;23.400;2024-03-29T03:36:56;2.25;;;1.40;;
32196;SDS011;18697;42.770;23.400;2024-03-29T03:39:21;2.90;;;1.70;;
32196;SDS011;18697;42.770;23.400;2024-03-29T03:41:47;1.50;;;1.40;;
32196;SDS011;18697;42.770;23.400;2024-03-29T03:44:12;3.10;;;2.17;;
32196;SDS011;18697;42.770;23.400;2024-03-29T03:46:38;10.38;;;4.50;;
32196;SDS011;18697;42.770;23.400;2024-03-29T03:49:03;4.20;;;2.80;;
32196;SDS011;18697;42.770;23.400;2024-03-29T03:51:28;4.35;;;2.67;;
32196;SDS011;18697;42.770;23.400;2024-03-29T03:53:54;4.35;;;2.72;;
32196;SDS011;18697;42.770;23.400;2024-03-29T03:56:19;3.75;;;2.67;;
32196;SDS011;18697;42.770;23.400;2024-03-29T03:58:44;3.60;;;2.30;;
32196;SDS011;18697;42.770;23.400;2024-03-29T04:01:10;7.88;;;2.38;;
32196;SDS011;18697;42.770;23.400;2024-03-29T04:03:35;5.95;;;2.60;;
32196;SDS011;18697;42.770;23.400;2024-03-29T04:06:04;4.28;;;2.75;;
32196;SDS011;18697;42.770;23.400;2024-03-29T04:08:30;4.88;;;2.88;;
32196;SDS011;18697;42.770;23.400;2024-03-29T04:10:55;6.90;;;3.17;;
32196;SDS011;18697;42.770;23.400;2024-03-29T04:13:21;8.68;;;3.85;;
32196;SDS011;18697;42.770;23.400;2024-03-29T04:15:47;7.60;;;3.75;;
32196;SDS011;18697;42.770;23.400;2024-03-29T04:18:13;8.85;;;3.92;;
32196;SDS011;18697;42.770;23.400;2024-03-29T04:20:38;5.90;;;3.95;;
32196;SDS011;18697;42.770;23.400;2024-03-29T04:23:04;8.15;;;3.78;;
32196;SDS011;18697;42.770;23.400;2024-03-29T04:25:30;9.15;;;3.80;;
32196;SDS011;18697;42.770;23.400;2024-03-29T04:27:56;6.18;;;3.47;;
32196;SDS011;18697;42.770;23.400;2024-03-29T04:30:21;8.63;;;4.03;;
32196;SDS011;18697;42.770;23.400;2024-03-29T04:32:47;9.40;;;3.35;;
32196;SDS011;18697;42.770;23.400;2024-03-29T04:35:12;6.82;;;3.88;;
32196;SDS011;18697;42.770;23.400;2024-03-29T04:37:38;9.27;;;4.40;;
32196;SDS011;18697;42.770;23.400;2024-03-29T04:40:03;10.43;;;5.25;;
32196;SDS011;18697;42.770;23.400;2024-03-29T04:42:29;11.93;;;5.57;;
32196;SDS011;18697;42.770;23.400;2024-03-29T04:44:54;7.75;;;4.57;;
32196;SDS011;18697;42.770;23.400;2024-03-29T04:47:20;8.93;;;4.57;;
32196;SDS011;18697;42.770;23.400;2024-03-29T04:49:45;9.00;;;4.90;;
32196;SDS011;18697;42.770;23.400;2024-03-29T04:52:10;10.25;;;4.93;;
32196;SDS011;18697;42.770;23.400;2024-03-29T04:54:36;10.60;;;5.50;;
32196;SDS011;18697;42.770;23.400;2024-03-29T04:57:03;17.90;;;6.65;;
32196;SDS011;18697;42.770;23.400;2024-03-29T04:59:31;10.23;;;6.65;;
32196;SDS011;18697;42.770;23.400;2024-03-29T05:01:58;13.95;;;7.65;;
32196;SDS011;18697;42.770;23.400;2024-03-29T05:04:24;10.65;;;5.72;;
32196;SDS011;18697;42.770;23.400;2024-03-29T05:09:18;18.65;;;10.70;;
32196;SDS011;18697;42.770;23.400;2024-03-29T05:11:44;18.55;;;12.10;;
32196;SDS011;18697;42.770;23.400;2024-03-29T05:14:09;23.70;;;13.48;;
32196;SDS011;18697;42.770;23.400;2024-03-29T05:16:35;19.98;;;13.20;;
32196;SDS011;18697;42.770;23.400;2024-03-29T05:19:00;21.85;;;12.27;;
32196;SDS011;18697;42.770;23.400;2024-03-29T05:21:26;16.05;;;10.25;;
32196;SDS011;18697;42.770;23.400;2024-03-29T05:23:51;23.60;;;14.35;;
32196;SDS011;18697;42.770;23.400;2024-03-29T05:26:17;18.50;;;10.70;;
32196;SDS011;18697;42.770;23.400;2024-03-29T05:28:42;15.75;;;9.43;;
32196;SDS011;18697;42.770;23.400;2024-03-29T05:31:12;6.80;;;3.85;;
32196;SDS011;18697;42.770;23.400;2024-03-29T05:33:39;14.25;;;9.32;;
32196;SDS011;18697;42.770;23.400;2024-03-29T05:36:08;18.55;;;12.27;;
32196;SDS011;18697;42.770;23.400;2024-03-29T05:38:35;21.50;;;12.85;;
32196;SDS011;18697;42.770;23.400;2024-03-29T05:41:04;16.42;;;9.45;;
32196;SDS011;18697;42.770;23.400;2024-03-29T05:43:30;8.93;;;4.93;;
32196;SDS011;18697;42.770;23.400;2024-03-29T05:45:55;8.63;;;5.00;;
32196;SDS011;18697;42.770;23.400;2024-03-29T05:48:21;24.10;;;12.48;;
32196;SDS011;18697;42.770;23.400;2024-03-29T05:50:47;10.73;;;6.90;;
32196;SDS011;18697;42.770;23.400;2024-03-29T05:53:12;20.55;;;12.07;;
32196;SDS011;18697;42.770;23.400;2024-03-29T05:55:38;32.50;;;17.58;;
32196;SDS011;18697;42.770;23.400;2024-03-29T05:58:03;21.73;;;14.45;;
32196;SDS011;18697;42.770;23.400;2024-03-29T06:00:31;22.00;;;14.77;;
32196;SDS011;18697;42.770;23.400;2024-03-29T06:02:58;26.30;;;15.65;;
32196;SDS011;18697;42.770;23.400;2024-03-29T06:05:23;22.77;;;13.57;;
32196;SDS011;18697;42.770;23.400;2024-03-29T06:07:49;19.10;;;13.23;;
32196;SDS011;18697;42.770;23.400;2024-03-29T06:10:14;11.85;;;7.55;;
32196;SDS011;18697;42.770;23.400;2024-03-29T06:12:40;15.23;;;9.27;;
32196;SDS011;18697;42.770;23.400;2024-03-29T06:15:06;18.02;;;10.77;;
32196;SDS011;18697;42.770;23.400;2024-03-29T06:17:50;15.98;;;10.02;;
32196;SDS011;18697;42.770;23.400;2024-03-29T06:20:15;7.82;;;4.63;;
32196;SDS011;18697;42.770;23.400;2024-03-29T06:22:40;12.07;;;8.35;;
32196;SDS011;18697;42.770;23.400;2024-03-29T06:25:06;14.57;;;6.30;;
32196;SDS011;18697;42.770;23.400;2024-03-29T06:27:36;19.10;;;9.32;;
32196;SDS011;18697;42.770;23.400;2024-03-29T06:30:04;13.68;;;8.07;;
32196;SDS011;18697;42.770;23.400;2024-03-29T06:32:31;14.27;;;6.88;;
32196;SDS011;18697;42.770;23.400;2024-03-29T06:34:57;10.95;;;8.43;;
32196;SDS011;18697;42.770;23.400;2024-03-29T06:37:23;13.50;;;8.52;;
32196;SDS011;18697;42.770;23.400;2024-03-29T06:39:50;18.35;;;4.32;;
32196;SDS011;18697;42.770;23.400;2024-03-29T06:42:16;9.02;;;5.72;;
32196;SDS011;18697;42.770;23.400;2024-03-29T06:44:42;8.73;;;4.95;;
32196;SDS011;18697;42.770;23.400;2024-03-29T06:47:08;7.43;;;2.22;;
32196;SDS011;18697;42.770;23.400;2024-03-29T06:49:33;5.45;;;3.85;;
32196;SDS011;18697;42.770;23.400;2024-03-29T06:51:59;9.02;;;4.90;;
32196;SDS011;18697;42.770;23.400;2024-03-29T06:54:26;4.25;;;2.08;;
32196;SDS011;18697;42.770;23.400;2024-03-29T06:56:55;8.25;;;4.30;;
32196;SDS011;18697;42.770;23.400;2024-03-29T06:59:21;6.32;;;2.92;;
32196;SDS011;18697;42.770;23.400;2024-03-29T07:01:46;16.30;;;3.03;;
32196;SDS011;18697;42.770;23.400;2024-03-29T07:04:19;9.52;;;5.63;;
32196;SDS011;18697;42.770;23.400;2024-03-29T07:06:45;8.90;;;4.45;;
32196;SDS011;18697;42.770;23.400;2024-03-29T07:09:12;8.27;;;4.90;;
32196;SDS011;18697;42.770;23.400;2024-03-29T07:11:41;7.53;;;4.43;;
32196;SDS011;18697;42.770;23.400;2024-03-29T07:14:06;3.75;;;2.15;;
32196;SDS011;18697;42.770;23.400;2024-03-29T07:16:31;6.90;;;4.45;;
32196;SDS011;18697;42.770;23.400;2024-03-29T07:18:57;3.83;;;1.83;;
32196;SDS011;18697;42.770;23.400;2024-03-29T07:21:22;6.40;;;3.38;;
32196;SDS011;18697;42.770;23.400;2024-03-29T07:23:49;5.35;;;1.90;;
32196;SDS011;18697;42.770;23.400;2024-03-29T07:26:14;8.80;;;5.53;;
32196;SDS011;18697;42.770;23.400;2024-03-29T07:28:39;5.55;;;2.67;;
32196;SDS011;18697;42.770;23.400;2024-03-29T07:31:05;5.07;;;1.35;;
32196;SDS011;18697;42.770;23.400;2024-03-29T07:33:32;5.47;;;1.70;;
32196;SDS011;18697;42.770;23.400;2024-03-29T07:35:58;3.65;;;0.80;;
32196;SDS011;18697;42.770;23.400;2024-03-29T07:38:24;4.68;;;0.95;;
32196;SDS011;18697;42.770;23.400;2024-03-29T07:40:50;7.35;;;1.85;;
32196;SDS011;18697;42.770;23.400;2024-03-29T07:43:16;12.50;;;5.43;;
32196;SDS011;18697;42.770;23.400;2024-03-29T07:45:42;2.67;;;0.90;;
32196;SDS011;18697;42.770;23.400;2024-03-29T07:48:11;7.68;;;1.92;;
32196;SDS011;18697;42.770;23.400;2024-03-29T07:50:44;2.33;;;0.98;;
32196;SDS011;18697;42.770;23.400;2024-03-29T07:53:10;6.68;;;1.30;;
32196;SDS011;18697;42.770;23.400;2024-03-29T07:55:37;3.78;;;0.75;;
32196;SDS011;18697;42.770;23.400;2024-03-29T07:58:03;2.67;;;0.68;;
32196;SDS011;18697;42.770;23.400;2024-03-29T08:00:33;7.03;;;1.00;;
32196;SDS011;18697;42.770;23.400;2024-03-29T08:02:59;5.85;;;0.63;;
32196;SDS011;18697;42.770;23.400;2024-03-29T08:05:24;5.32;;;0.60;;
32196;SDS011;18697;42.770;23.400;2024-03-29T08:07:50;4.13;;;1.73;;
32196;SDS011;18697;42.770;23.400;2024-03-29T08:10:15;4.15;;;1.25;;
32196;SDS011;18697;42.770;23.400;2024-03-29T08:12:41;2.15;;;0.45;;
32196;SDS011;18697;42.770;23.400;2024-03-29T08:15:06;7.88;;;2.67;;
32196;SDS011;18697;42.770;23.400;2024-03-29T08:17:33;4.32;;;1.08;;
32196;SDS011;18697;42.770;23.400;2024-03-29T08:19:58;4.88;;;2.05;;
32196;SDS011;18697;42.770;23.400;2024-03-29T08:22:24;5.35;;;1.45;;
32196;SDS011;18697;42.770;23.400;2024-03-29T08:24:49;3.67;;;0.65;;
32196;SDS011;18697;42.770;23.400;2024-03-29T08:27:15;5.78;;;3.13;;
32196;SDS011;18697;42.770;23.400;2024-03-29T08:29:43;23.55;;;14.60;;
32196;SDS011;18697;42.770;23.400;2024-03-29T08:32:08;12.45;;;6.97;;
32196;SDS011;18697;42.770;23.400;2024-03-29T08:34:37;3.47;;;1.13;;
32196;SDS011;18697;42.770;23.400;2024-03-29T08:37:03;5.63;;;2.55;;
32196;SDS011;18697;42.770;23.400;2024-03-29T08:39:29;5.00;;;2.05;;
32196;SDS011;18697;42.770;23.400;2024-03-29T08:41:55;4.30;;;0.88;;
32196;SDS011;18697;42.770;23.400;2024-03-29T08:44:21;7.18;;;3.95;;
32196;SDS011;18697;42.770;23.400;2024-03-29T08:46:46;14.45;;;0.98;;
32196;SDS011;18697;42.770;23.400;2024-03-29T08:49:11;3.90;;;1.15;;
32196;SDS011;18697;42.770;23.400;2024-03-29T08:51:37;2.75;;;0.70;;
32196;SDS011;18697;42.770;23.400;2024-03-29T08:54:02;2.13;;;0.68;;
32196;SDS011;18697;42.770;23.400;2024-03-29T08:56:30;5.50;;;0.82;;
32196;SDS011;18697;42.770;23.400;2024-03-29T08:59:01;12.65;;;3.97;;
32196;SDS011;18697;42.770;23.400;2024-03-29T09:01:32;3.33;;;1.00;;
32196;SDS011;18697;42.770;23.400;2024-03-29T09:03:57;2.45;;;1.55;;
32196;SDS011;18697;42.770;23.400;2024-03-29T09:06:23;2.33;;;0.80;;
32196;SDS011;18697;42.770;23.400;2024-03-29T09:08:48;2.63;;;1.10;;
32196;SDS011;18697;42.770;23.400;2024-03-29T09:11:13;4.88;;;1.77;;
32196;SDS011;18697;42.770;23.400;2024-03-29T09:13:39;2.50;;;1.00;;
32196;SDS011;18697;42.770;23.400;2024-03-29T09:16:04;5.72;;;0.95;;
32196;SDS011;18697;42.770;23.400;2024-03-29T09:18:30;9.57;;;1.35;;
32196;SDS011;18697;42.770;23.400;2024-03-29T09:20:58;7.30;;;1.17;;
32196;SDS011;18697;42.770;23.400;2024-03-29T09:23:25;16.65;;;1.33;;
32196;SDS011;18697;42.770;23.400;2024-03-29T09:25:53;4.50;;;1.20;;
32196;SDS011;18697;42.770;23.400;2024-03-29T09:28:18;4.72;;;0.98;;
32196;SDS011;18697;42.770;23.400;2024-03-29T09:30:45;2.95;;;0.90;;
32196;SDS011;18697;42.770;23.400;2024-03-29T09:33:11;5.30;;;0.98;;
32196;SDS011;18697;42.770;23.400;2024-03-29T09:35:37;5.15;;;0.75;;
32196;SDS011;18697;42.770;23.400;2024-03-29T09:38:02;4.47;;;0.90;;
32196;SDS011;18697;42.770;23.400;2024-03-29T09:40:29;6.03;;;0.80;;
32196;SDS011;18697;42.770;23.400;2024-03-29T09:42:55;1.65;;;0.55;;
32196;SDS011;18697;42.770;23.400;2024-03-29T09:45:36;2.10;;;0.50;;
32196;SDS011;18697;42.770;23.400;2024-03-29T09:48:05;2.38;;;0.40;;
32196;SDS011;18697;42.770;23.400;2024-03-29T09:50:34;2.22;;;0.68;;
32196;SDS011;18697;42.770;23.400;2024-03-29T09:53:05;3.72;;;0.60;;
32196;SDS011;18697;42.770;23.400;2024-03-29T09:55:33;5.20;;;1.70;;
32196;SDS011;18697;42.770;23.400;2024-03-29T09:57:58;1.70;;;0.73;;
32196;SDS011;18697;42.770;23.400;2024-03-29T10:00:25;7.43;;;1.55;;
32196;SDS011;18697;42.770;23.400;2024-03-29T10:02:55;5.80;;;1.30;;
32196;SDS011;18697;42.770;23.400;2024-03-29T10:05:24;2.70;;;0.70;;
32196;SDS011;18697;42.770;23.400;2024-03-29T10:07:52;6.85;;;0.90;;
32196;SDS011;18697;42.770;23.400;2024-03-29T10:10:17;5.18;;;0.80;;
32196;SDS011;18697;42.770;23.400;2024-03-29T10:12:43;1.73;;;0.40;;
32196;SDS011;18697;42.770;23.400;2024-03-29T10:15:08;1.63;;;0.52;;
32196;SDS011;18697;42.770;23.400;2024-03-29T10:17:37;2.40;;;0.90;;
32196;SDS011;18697;42.770;23.400;2024-03-29T10:20:03;3.42;;;0.60;;
32196;SDS011;18697;42.770;23.400;2024-03-29T10:22:30;5.68;;;0.63;;
32196;SDS011;18697;42.770;23.400;2024-03-29T10:25:00;2.80;;;1.13;;
32196;SDS011;18697;42.770;23.400;2024-03-29T10:27:26;2.22;;;0.73;;
32196;SDS011;18697;42.770;23.400;2024-03-29T10:29:52;4.65;;;0.82;;
32196;SDS011;18697;42.770;23.400;2024-03-29T10:32:18;3.40;;;0.93;;
32196;SDS011;18697;42.770;23.400;2024-03-29T10:34:43;2.53;;;0.63;;
32196;SDS011;18697;42.770;23.400;2024-03-29T10:37:09;4.97;;;1.00;;
32196;SDS011;18697;42.770;23.400;2024-03-29T10:39:35;5.70;;;1.58;;
32196;SDS011;18697;42.770;23.400;2024-03-29T10:42:01;5.40;;;1.17;;
32196;SDS011;18697;42.770;23.400;2024-03-29T10:44:30;3.80;;;0.50;;
32196;SDS011;18697;42.770;23.400;2024-03-29T10:46:57;7.50;;;1.33;;
32196;SDS011;18697;42.770;23.400;2024-03-29T10:49:27;13.57;;;2.25;;
32196;SDS011;18697;42.770;23.400;2024-03-29T10:51:57;2.95;;;0.65;;
32196;SDS011;18697;42.770;23.400;2024-03-29T10:54:24;4.57;;;1.23;;
32196;SDS011;18697;42.770;23.400;2024-03-29T10:56:54;3.45;;;1.00;;
32196;SDS011;18697;42.770;23.400;2024-03-29T11:01:59;3.58;;;0.88;;
32196;SDS011;18697;42.770;23.400;2024-03-29T11:04:29;4.15;;;1.70;;
32196;SDS011;18697;42.770;23.400;2024-03-29T11:06:59;6.40;;;1.27;;
32196;SDS011;18697;42.770;23.400;2024-03-29T11:09:30;2.75;;;1.02;;
32196;SDS011;18697;42.770;23.400;2024-03-29T11:12:01;3.13;;;0.55;;
32196;SDS011;18697;42.770;23.400;2024-03-29T11:14:35;2.53;;;0.85;;
32196;SDS011;18697;42.770;23.400;2024-03-29T11:17:05;5.50;;;1.48;;
32196;SDS011;18697;42.770;23.400;2024-03-29T11:19:32;8.65;;;1.90;;
32196;SDS011;18697;42.770;23.400;2024-03-29T11:21:57;2.72;;;0.75;;
32196;SDS011;18697;42.770;23.400;2024-03-29T11:24:24;3.55;;;1.13;;
32196;SDS011;18697;42.770;23.400;2024-03-29T11:26:52;5.38;;;0.90;;
32196;SDS011;18697;42.770;23.400;2024-03-29T11:29:21;3.28;;;1.20;;
32196;SDS011;18697;42.770;23.400;2024-03-29T11:31:47;3.95;;;1.00;;
32196;SDS011;18697;42.770;23.400;2024-03-29T11:34:18;4.22;;;1.17;;
32196;SDS011;18697;42.770;23.400;2024-03-29T11:36:44;3.20;;;0.75;;
32196;SDS011;18697;42.770;23.400;2024-03-29T11:39:19;4.20;;;0.98;;
32196;SDS011;18697;42.770;23.400;2024-03-29T11:41:48;11.73;;;1.05;;
32196;SDS011;18697;42.770;23.400;2024-03-29T11:44:14;4.78;;;1.00;;
32196;SDS011;18697;42.770;23.400;2024-03-29T11:46:40;5.68;;;0.70;;
32196;SDS011;18697;42.770;23.400;2024-03-29T11:49:07;5.72;;;1.08;;
32196;SDS011;18697;42.770;23.400;2024-03-29T11:51:32;1.92;;;0.80;;
32196;SDS011;18697;42.770;23.400;2024-03-29T11:53:59;5.60;;;0.88;;
32196;SDS011;18697;42.770;23.400;2024-03-29T11:56:25;17.15;;;1.13;;
32196;SDS011;18697;42.770;23.400;2024-03-29T11:58:50;4.22;;;0.95;;
32196;SDS011;18697;42.770;23.400;2024-03-29T12:01:15;3.35;;;0.90;;
32196;SDS011;18697;42.770;23.400;2024-03-29T12:03:42;5.38;;;0.80;;
32196;SDS011;18697;42.770;23.400;2024-03-29T12:06:09;3.13;;;0.75;;
32196;SDS011;18697;42.770;23.400;2024-03-29T12:08:38;4.57;;;0.60;;
32196;SDS011;18697;42.770;23.400;2024-03-29T12:11:04;2.25;;;0.60;;
32196;SDS011;18697;42.770;23.400;2024-03-29T12:13:30;4.15;;;0.55;;
32196;SDS011;18697;42.770;23.400;2024-03-29T12:15:56;1.95;;;0.40;;
32196;SDS011;18697;42.770;23.400;2024-03-29T12:18:23;4.68;;;0.68;;
32196;SDS011;18697;42.770;23.400;2024-03-29T12:20:50;1.80;;;0.38;;
32196;SDS011;18697;42.770;23.400;2024-03-29T12:23:17;2.72;;;0.43;;
32196;SDS011;18697;42.770;23.400;2024-03-29T12:25:47;5.43;;;0.75;;
32196;SDS011;18697;42.770;23.400;2024-03-29T12:28:14;3.40;;;0.60;;
32196;SDS011;18697;42.770;23.400;2024-03-29T12:30:41;1.67;;;0.35;;
32196;SDS011;18697;42.770;23.400;2024-03-29T12:33:12;3.35;;;0.50;;
32196;SDS011;18697;42.770;23.400;2024-03-29T12:35:42;5.88;;;1.10;;
32196;SDS011;18697;42.770;23.400;2024-03-29T12:38:13;12.43;;;0.85;;
32196;SDS011;18697;42.770;23.400;2024-03-29T12:40:40;3.05;;;0.90;;
32196;SDS011;18697;42.770;23.400;2024-03-29T12:43:08;5.53;;;0.60;;
32196;SDS011;18697;42.770;23.400;2024-03-29T12:45:34;4.65;;;0.70;;
32196;SDS011;18697;42.770;23.400;2024-03-29T12:48:01;3.88;;;0.70;;
32196;SDS011;18697;42.770;23.400;2024-03-29T12:50:28;6.53;;;0.68;;
32196;SDS011;18697;42.770;23.400;2024-03-29T12:52:56;2.03;;;0.57;;
32196;SDS011;18697;42.770;23.400;2024-03-29T12:55:23;4.25;;;0.60;;
32196;SDS011;18697;42.770;23.400;2024-03-29T12:57:53;1.27;;;0.38;;
32196;SDS011;18697;42.770;23.400;2024-03-29T13:00:22;4.30;;;0.50;;
32196;SDS011;18697;42.770;23.400;2024-03-29T13:02:48;2.53;;;0.60;;
32196;SDS011;18697;42.770;23.400;2024-03-29T13:05:14;1.80;;;0.40;;
32196;SDS011;18697;42.770;23.400;2024-03-29T13:07:40;3.60;;;0.75;;
32196;SDS011;18697;42.770;23.400;2024-03-29T13:10:06;0.98;;;0.50;;
32196;SDS011;18697;42.770;23.400;2024-03-29T13:12:37;2.35;;;0.50;;
32196;SDS011;18697;42.770;23.400;2024-03-29T13:15:14;2.58;;;0.43;;
32196;SDS011;18697;42.770;23.400;2024-03-29T13:17:40;4.00;;;0.63;;
32196;SDS011;18697;42.770;23.400;2024-03-29T13:20:06;3.00;;;0.40;;
32196;SDS011;18697;42.770;23.400;2024-03-29T13:22:32;7.60;;;0.68;;
32196;SDS011;18697;42.770;23.400;2024-03-29T13:24:57;2.53;;;1.02;;
32196;SDS011;18697;42.770;23.400;2024-03-29T13:27:22;3.80;;;0.60;;
32196;SDS011;18697;42.770;23.400;2024-03-29T13:29:48;2.50;;;0.50;;
32196;SDS011;18697;42.770;23.400;2024-03-29T13:32:14;1.33;;;0.30;;
32196;SDS011;18697;42.770;23.400;2024-03-29T13:34:39;2.42;;;0.70;;
32196;SDS011;18697;42.770;23.400;2024-03-29T13:37:05;3.85;;;0.47;;
32196;SDS011;18697;42.770;23.400;2024-03-29T13:39:30;5.80;;;0.60;;
32196;SDS011;18697;42.770;23.400;2024-03-29T13:41:55;3.33;;;0.50;;
32196;SDS011;18697;42.770;23.400;2024-03-29T13:44:21;4.88;;;0.50;;
32196;SDS011;18697;42.770;23.400;2024-03-29T13:46:46;2.40;;;0.50;;
32196;SDS011;18697;42.770;23.400;2024-03-29T13:51:47;6.20;;;0.63;;
32196;SDS011;18697;42.770;23.400;2024-03-29T13:54:12;2.33;;;0.30;;
32196;SDS011;18697;42.770;23.400;2024-03-29T13:56:38;3.30;;;0.68;;
32196;SDS011;18697;42.770;23.400;2024-03-29T14:13:23;1.35;;;0.50;;
32196;SDS011;18697;42.770;23.400;2024-03-29T14:15:48;3.30;;;0.75;;
32196;SDS011;18697;42.770;23.400;2024-03-29T14:18:14;2.15;;;0.70;;
32196;SDS011;18697;42.770;23.400;2024-03-29T14:20:40;7.30;;;1.20;;
32196;SDS011;18697;42.770;23.400;2024-03-29T14:23:05;2.42;;;0.80;;
32196;SDS011;18697;42.770;23.400;2024-03-29T14:28:06;2.37;;;0.60;;
32196;SDS011;18697;42.770;23.400;2024-03-29T14:30:32;3.97;;;0.70;;
32196;SDS011;18697;42.770;23.400;2024-03-29T14:32:57;3.05;;;0.63;;
32196;SDS011;18697;42.770;23.400;2024-03-29T14:35:27;2.97;;;0.50;;
32196;SDS011;18697;42.770;23.400;2024-03-29T14:37:54;2.60;;;0.70;;
32196;SDS011;18697;42.770;23.400;2024-03-29T14:45:29;2.13;;;0.53;;
32196;SDS011;18697;42.770;23.400;2024-03-29T14:47:55;3.17;;;0.70;;
32196;SDS011;18697;42.770;23.400;2024-03-29T14:50:20;4.00;;;0.47;;
32196;SDS011;18697;42.770;23.400;2024-03-29T14:52:45;2.90;;;0.50;;
32196;SDS011;18697;42.770;23.400;2024-03-29T14:55:14;2.67;;;0.80;;
32196;SDS011;18697;42.770;23.400;2024-03-29T14:57:39;4.75;;;0.77;;
32196;SDS011;18697;42.770;23.400;2024-03-29T15:00:06;9.38;;;0.60;;
32196;SDS011;18697;42.770;23.400;2024-03-29T15:02:33;7.35;;;0.73;;